Time;durP1;ratioP1;P1;durP2;ratioP2;P2;SDS_P1;SDS_P2;PMS_P1;PMS_P2;Temp;Humidity;BMP_temperature;BMP_pressure;BME280_temperature;BME280_humidity;BME280_pressure;Samples;Min_cycle;Max_cycle;Signal;HPM_P1;HPM_P2
2021/09/30 00:01:35;;;;;;;5.00;2.25;;;;;;;;;;4950334;28;20042;-57
2021/09/30 00:04:01;;;;;;;8.23;2.65;;;;;;;;;;4954252;28;20031;-57
2021/09/30 00:06:26;;;;;;;4.60;2.35;;;;;;;;;;4952165;28;20051;-57
2021/09/30 00:08:51;;;;;;;4.72;2.05;;;;;;;;;;4955386;28;20023;-57
2021/09/30 00:11:22;;;;;;;7.50;2.30;;;;;;;;;;4959061;28;20726;-57
2021/09/30 00:13:55;;;;;;;4.85;2.20;;;;;;;;;;4956131;28;20033;-57
2021/09/30 00:16:56;;;;;;;5.97;2.22;;;;;;;;;;4957922;28;20051;-58
2021/09/30 00:46:22;;;;;;;9.50;2.03;;;;;;;;;;4953011;28;20050;-57
2021/09/30 00:48:56;;;;;;;6.35;2.20;;;;;;;;;;4950241;28;20030;-57
2021/09/30 00:51:28;;;;;;;6.85;1.90;;;;;;;;;;4948760;28;20035;-57
2021/09/30 02:18:33;;;;;;;5.70;2.30;;;;;;;;;;4951232;28;20030;-57
2021/09/30 02:24:00;;;;;;;7.80;2.53;;;;;;;;;;4957385;28;20042;-57
2021/09/30 02:58:38;;;;;;;4.00;2.38;;;;;;;;;;4933723;29;20095;-57
2021/09/30 03:01:14;;;;;;;6.38;2.22;;;;;;;;;;4941146;28;20070;-57
2021/09/30 03:03:39;;;;;;;5.78;2.30;;;;;;;;;;4950723;28;20039;-57
2021/09/30 03:06:05;;;;;;;6.38;2.38;;;;;;;;;;4953492;28;20085;-57
2021/09/30 03:08:31;;;;;;;8.45;2.55;;;;;;;;;;4940132;28;20041;-58
2021/09/30 03:10:58;;;;;;;6.03;2.80;;;;;;;;;;4946317;28;20664;-57
2021/09/30 03:13:23;;;;;;;5.85;2.50;;;;;;;;;;4944889;29;20370;-57
2021/09/30 03:16:06;;;;;;;7.65;2.80;;;;;;;;;;4947231;28;20504;-57
2021/09/30 03:23:34;;;;;;;4.18;2.17;;;;;;;;;;4962752;28;20023;-57
2021/09/30 03:26:00;;;;;;;4.95;2.58;;;;;;;;;;4943595;28;20498;-57
2021/09/30 03:28:25;;;;;;;6.20;2.47;;;;;;;;;;4936532;28;20047;-57
2021/09/30 03:30:53;;;;;;;4.43;2.70;;;;;;;;;;4938832;28;20570;-57
2021/09/30 03:33:18;;;;;;;3.60;1.83;;;;;;;;;;4921887;28;20027;-57
2021/09/30 03:35:43;;;;;;;6.95;3.03;;;;;;;;;;4944465;28;20516;-57
2021/09/30 03:38:09;;;;;;;4.90;2.83;;;;;;;;;;4933631;29;20078;-57
2021/09/30 03:40:35;;;;;;;5.72;3.15;;;;;;;;;;4905156;29;20421;-57
2021/09/30 03:43:00;;;;;;;5.28;2.85;;;;;;;;;;4932243;29;20106;-57
2021/09/30 03:45:25;;;;;;;5.53;2.90;;;;;;;;;;4931764;28;20047;-57
2021/09/30 03:47:50;;;;;;;5.75;2.67;;;;;;;;;;4935243;29;20031;-57
2021/09/30 03:50:18;;;;;;;9.10;3.05;;;;;;;;;;4930813;28;20035;-57
2021/09/30 03:55:58;;;;;;;5.88;3.00;;;;;;;;;;4925301;29;20071;-57
2021/09/30 04:01:27;;;;;;;12.05;2.85;;;;;;;;;;4926305;29;20070;-57
2021/09/30 04:03:52;;;;;;;9.35;3.45;;;;;;;;;;4922684;29;20067;-57
2021/09/30 04:06:18;;;;;;;6.13;3.00;;;;;;;;;;4931514;28;20047;-57
2021/09/30 04:08:44;;;;;;;7.25;3.08;;;;;;;;;;4936605;28;20663;-57
2021/09/30 04:11:09;;;;;;;7.57;2.80;;;;;;;;;;4931622;28;20090;-57
2021/09/30 04:13:34;;;;;;;6.45;2.97;;;;;;;;;;4936053;29;20031;-57
2021/09/30 04:15:59;;;;;;;6.45;2.83;;;;;;;;;;4919087;29;20530;-57
2021/09/30 04:18:25;;;;;;;9.32;3.33;;;;;;;;;;4937460;29;20036;-57
2021/09/30 04:20:51;;;;;;;8.98;3.05;;;;;;;;;;4940262;28;20565;-57
2021/09/30 04:23:16;;;;;;;10.75;3.70;;;;;;;;;;4936798;29;20043;-57
2021/09/30 04:25:42;;;;;;;10.90;3.20;;;;;;;;;;4941747;28;20066;-57
2021/09/30 04:28:07;;;;;;;7.18;3.13;;;;;;;;;;4914045;29;20031;-57
2021/09/30 04:30:32;;;;;;;7.00;3.22;;;;;;;;;;4924163;29;20133;-57
2021/09/30 04:32:57;;;;;;;7.70;3.33;;;;;;;;;;4931744;28;20561;-57
2021/09/30 04:35:23;;;;;;;9.40;3.15;;;;;;;;;;4940211;28;20769;-57
2021/09/30 04:37:48;;;;;;;5.95;3.45;;;;;;;;;;4935493;28;20051;-57
2021/09/30 04:40:13;;;;;;;14.48;3.35;;;;;;;;;;4930703;28;20016;-58
2021/09/30 04:42:38;;;;;;;7.35;3.80;;;;;;;;;;4930819;28;20043;-57
2021/09/30 04:45:04;;;;;;;6.95;3.70;;;;;;;;;;4931657;28;20102;-58
2021/09/30 04:47:29;;;;;;;6.93;3.72;;;;;;;;;;4952793;28;20046;-57
2021/09/30 04:49:54;;;;;;;9.02;3.65;;;;;;;;;;4947319;28;20506;-57
2021/09/30 04:52:20;;;;;;;4.97;3.35;;;;;;;;;;4932150;28;20043;-57
2021/09/30 04:54:45;;;;;;;6.35;3.88;;;;;;;;;;4933894;29;20051;-57
2021/09/30 04:57:11;;;;;;;10.65;3.92;;;;;;;;;;4930784;28;20127;-57
2021/09/30 04:59:36;;;;;;;7.45;3.30;;;;;;;;;;4931231;29;20046;-57
2021/09/30 05:02:01;;;;;;;8.98;4.13;;;;;;;;;;4934069;29;20548;-57
2021/09/30 05:04:26;;;;;;;8.68;3.85;;;;;;;;;;4941811;28;20054;-57
2021/09/30 05:06:52;;;;;;;8.77;3.53;;;;;;;;;;4937998;28;20059;-57
2021/09/30 05:09:18;;;;;;;11.80;3.60;;;;;;;;;;4918907;29;20027;-57
2021/09/30 05:11:50;;;;;;;12.02;3.88;;;;;;;;;;4931931;29;20131;-57
2021/09/30 05:14:16;;;;;;;12.38;4.05;;;;;;;;;;4929366;29;20814;-57
2021/09/30 05:16:41;;;;;;;10.27;3.75;;;;;;;;;;4938251;28;20178;-57
2021/09/30 05:19:06;;;;;;;7.85;4.28;;;;;;;;;;4931055;29;20031;-57
2021/09/30 05:21:31;;;;;;;6.97;4.05;;;;;;;;;;4936761;28;20039;-57
2021/09/30 05:23:57;;;;;;;11.75;5.07;;;;;;;;;;4929636;29;20438;-57
2021/09/30 05:26:22;;;;;;;9.75;4.30;;;;;;;;;;4937505;28;20447;-57
2021/09/30 05:28:47;;;;;;;7.13;3.90;;;;;;;;;;4939211;29;20126;-57
2021/09/30 05:31:12;;;;;;;9.27;5.28;;;;;;;;;;4930080;29;20058;-57
2021/09/30 05:33:38;;;;;;;10.40;5.18;;;;;;;;;;4933952;29;20038;-57
2021/09/30 05:36:03;;;;;;;14.88;5.15;;;;;;;;;;4929072;28;20058;-57
2021/09/30 05:38:28;;;;;;;8.77;5.38;;;;;;;;;;4929865;29;20031;-58
2021/09/30 05:40:54;;;;;;;10.20;5.80;;;;;;;;;;4912815;29;20098;-58
2021/09/30 05:43:24;;;;;;;9.27;6.07;;;;;;;;;;4935938;28;20050;-58
2021/09/30 05:45:54;;;;;;;10.23;6.03;;;;;;;;;;4931512;28;20138;-58
2021/09/30 05:48:20;;;;;;;12.23;6.00;;;;;;;;;;4933566;28;20031;-60
2021/09/30 05:50:45;;;;;;;10.85;5.45;;;;;;;;;;4929903;28;20040;-57
2021/09/30 05:53:10;;;;;;;14.82;7.22;;;;;;;;;;4936050;28;20055;-57
2021/09/30 05:55:36;;;;;;;9.25;6.45;;;;;;;;;;4933991;28;20043;-57
2021/09/30 05:58:01;;;;;;;15.15;6.35;;;;;;;;;;4934954;29;20116;-57
2021/09/30 06:16:15;;;;;;;6.50;4.32;;;;;;;;;;4927873;28;20051;-58
2021/09/30 06:18:41;;;;;;;11.40;4.30;;;;;;;;;;4934360;29;20027;-57
2021/09/30 06:21:06;;;;;;;5.63;3.40;;;;;;;;;;4916341;28;20046;-58
2021/09/30 06:23:31;;;;;;;9.43;3.70;;;;;;;;;;4938902;28;20049;-57
2021/09/30 06:25:56;;;;;;;7.90;3.63;;;;;;;;;;4923230;29;20040;-58
2021/09/30 06:28:22;;;;;;;8.43;3.30;;;;;;;;;;4939073;29;20055;-57
2021/09/30 06:30:47;;;;;;;9.18;3.47;;;;;;;;;;4935205;28;20409;-58
2021/09/30 06:33:12;;;;;;;8.93;3.40;;;;;;;;;;4935870;29;20023;-57
2021/09/30 06:35:37;;;;;;;5.47;3.35;;;;;;;;;;4916189;29;20134;-58
2021/09/30 06:38:02;;;;;;;5.25;3.50;;;;;;;;;;4934279;29;20106;-57
2021/09/30 06:40:29;;;;;;;7.65;3.33;;;;;;;;;;4933622;29;20059;-57
2021/09/30 06:42:55;;;;;;;9.55;3.63;;;;;;;;;;4933774;29;20016;-57
2021/09/30 06:45:20;;;;;;;6.95;3.20;;;;;;;;;;4936509;28;20053;-57
2021/09/30 06:47:45;;;;;;;7.15;3.60;;;;;;;;;;4933413;29;20477;-57
2021/09/30 06:50:11;;;;;;;9.27;3.63;;;;;;;;;;4932350;29;20034;-57
2021/09/30 06:52:36;;;;;;;11.43;3.90;;;;;;;;;;4933306;29;20023;-57
2021/09/30 06:55:01;;;;;;;9.18;3.65;;;;;;;;;;4933366;28;20405;-57
2021/09/30 06:57:28;;;;;;;8.27;3.60;;;;;;;;;;4933170;28;20111;-60
2021/09/30 06:59:55;;;;;;;8.77;3.65;;;;;;;;;;4933615;29;20542;-58
2021/09/30 07:02:23;;;;;;;6.55;3.60;;;;;;;;;;4932415;28;20506;-57
2021/09/30 07:04:48;;;;;;;6.45;3.58;;;;;;;;;;4938007;28;20766;-58
2021/09/30 07:07:13;;;;;;;10.95;4.43;;;;;;;;;;4932197;29;20050;-57
2021/09/30 07:09:38;;;;;;;9.50;3.92;;;;;;;;;;4933340;29;20055;-57
2021/09/30 07:12:04;;;;;;;6.80;3.22;;;;;;;;;;4916771;29;20040;-58
2021/09/30 07:14:29;;;;;;;7.20;3.20;;;;;;;;;;4933767;29;20114;-58
2021/09/30 07:16:54;;;;;;;9.15;3.80;;;;;;;;;;4938376;28;20525;-58
2021/09/30 07:19:20;;;;;;;9.48;3.45;;;;;;;;;;4916872;29;20087;-57
2021/09/30 07:21:45;;;;;;;7.25;3.25;;;;;;;;;;4933403;29;20438;-57
2021/09/30 07:24:10;;;;;;;6.63;3.25;;;;;;;;;;4920755;29;20030;-57
2021/09/30 07:26:35;;;;;;;6.50;3.15;;;;;;;;;;4932358;28;20039;-57
2021/09/30 07:29:01;;;;;;;6.97;3.38;;;;;;;;;;4933000;29;20059;-58
2021/09/30 07:31:26;;;;;;;6.68;3.03;;;;;;;;;;4931794;29;20114;-57
2021/09/30 07:33:51;;;;;;;7.10;3.45;;;;;;;;;;4932038;29;20032;-57
2021/09/30 07:36:17;;;;;;;8.82;3.30;;;;;;;;;;4934774;28;20077;-58
2021/09/30 07:38:43;;;;;;;6.05;3.03;;;;;;;;;;4934810;29;20426;-58
2021/09/30 07:41:08;;;;;;;8.70;3.28;;;;;;;;;;4931801;29;20040;-58
2021/09/30 07:43:33;;;;;;;7.72;3.30;;;;;;;;;;4936167;29;20032;-58
2021/09/30 07:45:58;;;;;;;11.82;3.20;;;;;;;;;;4932656;28;20395;-57
2021/09/30 07:48:24;;;;;;;7.95;3.20;;;;;;;;;;4932558;29;20510;-59
2021/09/30 07:50:49;;;;;;;8.32;3.20;;;;;;;;;;4932310;28;20079;-58
2021/09/30 07:53:15;;;;;;;7.13;3.15;;;;;;;;;;4932608;29;20023;-58
2021/09/30 07:55:40;;;;;;;4.95;2.95;;;;;;;;;;4934530;28;20410;-58
2021/09/30 07:58:09;;;;;;;7.45;3.40;;;;;;;;;;4932716;29;20023;-58
2021/09/30 08:00:34;;;;;;;4.75;2.80;;;;;;;;;;4935953;29;20554;-59
2021/09/30 08:02:59;;;;;;;11.32;3.30;;;;;;;;;;4915341;29;20127;-58
2021/09/30 08:05:25;;;;;;;10.27;3.20;;;;;;;;;;4931699;28;20360;-57
2021/09/30 08:07:50;;;;;;;9.13;3.00;;;;;;;;;;4914717;29;20513;-57
2021/09/30 08:10:15;;;;;;;7.43;3.25;;;;;;;;;;4931987;28;20039;-60
2021/09/30 08:12:41;;;;;;;7.45;3.20;;;;;;;;;;4932442;29;20032;-57
2021/09/30 08:15:06;;;;;;;9.13;3.30;;;;;;;;;;4931056;28;20043;-58
2021/09/30 08:17:31;;;;;;;10.32;3.30;;;;;;;;;;4923087;29;20056;-58
2021/09/30 08:19:57;;;;;;;5.07;2.92;;;;;;;;;;4933748;29;20019;-57
2021/09/30 08:22:22;;;;;;;6.65;2.88;;;;;;;;;;4930568;28;20040;-57
2021/09/30 08:24:47;;;;;;;7.00;3.40;;;;;;;;;;4932575;29;20043;-57
2021/09/30 08:27:12;;;;;;;8.70;3.50;;;;;;;;;;4931700;28;20031;-57
2021/09/30 08:29:38;;;;;;;7.82;3.40;;;;;;;;;;4936704;29;20056;-57
2021/09/30 08:32:04;;;;;;;8.80;3.55;;;;;;;;;;4937539;29;20468;-58
2021/09/30 08:34:29;;;;;;;10.57;3.30;;;;;;;;;;4938077;28;20042;-58
2021/09/30 08:36:55;;;;;;;6.55;3.10;;;;;;;;;;4932678;28;20043;-58
2021/09/30 08:39:20;;;;;;;4.97;2.90;;;;;;;;;;4926829;29;20062;-57
2021/09/30 08:41:46;;;;;;;8.32;3.25;;;;;;;;;;4931873;28;20039;-59
2021/09/30 08:44:11;;;;;;;7.38;3.22;;;;;;;;;;4925688;29;20541;-59
2021/09/30 08:46:36;;;;;;;8.93;3.00;;;;;;;;;;4931224;28;20032;-59
2021/09/30 08:49:02;;;;;;;9.15;3.28;;;;;;;;;;4932070;29;20631;-57
2021/09/30 08:51:28;;;;;;;11.23;3.13;;;;;;;;;;4931037;28;20055;-60
2021/09/30 08:53:53;;;;;;;10.18;3.42;;;;;;;;;;4932013;29;20019;-57
2021/09/30 08:56:18;;;;;;;10.27;3.25;;;;;;;;;;4913932;29;20424;-58
2021/09/30 08:58:44;;;;;;;7.18;3.20;;;;;;;;;;4931518;29;20749;-59
2021/09/30 09:01:09;;;;;;;5.13;2.95;;;;;;;;;;4919330;29;20036;-57
2021/09/30 09:03:38;;;;;;;9.68;3.50;;;;;;;;;;4936987;29;20090;-57
2021/09/30 09:06:04;;;;;;;6.47;3.03;;;;;;;;;;4941305;28;20038;-57
2021/09/30 09:08:29;;;;;;;8.15;2.95;;;;;;;;;;4952969;28;20027;-57
2021/09/30 09:10:55;;;;;;;5.75;2.70;;;;;;;;;;4944129;28;20039;-59
2021/09/30 09:13:22;;;;;;;9.20;3.00;;;;;;;;;;4938427;29;20030;-58
2021/09/30 09:15:47;;;;;;;5.38;3.03;;;;;;;;;;4931945;28;20047;-57
2021/09/30 09:18:16;;;;;;;6.93;3.17;;;;;;;;;;4945129;28;20078;-57
2021/09/30 09:20:43;;;;;;;7.00;3.15;;;;;;;;;;4936204;28;20039;-56
2021/09/30 09:23:09;;;;;;;8.70;3.05;;;;;;;;;;4915123;29;20205;-58
2021/09/30 09:25:34;;;;;;;9.27;3.47;;;;;;;;;;4933983;28;20067;-59
2021/09/30 09:28:00;;;;;;;10.90;3.03;;;;;;;;;;4937113;29;20051;-59
2021/09/30 09:30:37;;;;;;;6.88;3.30;;;;;;;;;;4934458;29;20070;-60
2021/09/30 09:33:05;;;;;;;7.97;2.92;;;;;;;;;;4942860;29;20035;-59
2021/09/30 09:35:48;;;;;;;9.63;3.20;;;;;;;;;;4937924;28;20062;-58
2021/09/30 09:38:15;;;;;;;11.52;3.28;;;;;;;;;;4923388;29;20031;-59
2021/09/30 09:40:41;;;;;;;9.52;3.10;;;;;;;;;;4942223;29;20126;-56
2021/09/30 09:43:25;;;;;;;4.47;2.75;;;;;;;;;;4937649;29;20102;-59
2021/09/30 09:45:50;;;;;;;7.47;3.00;;;;;;;;;;4936700;28;20073;-58
2021/09/30 09:48:15;;;;;;;9.88;2.88;;;;;;;;;;4934753;29;20399;-58
2021/09/30 09:50:40;;;;;;;7.97;3.17;;;;;;;;;;4938836;28;20041;-59
2021/09/30 09:53:06;;;;;;;9.00;3.25;;;;;;;;;;4931231;29;20023;-57
2021/09/30 09:55:32;;;;;;;6.28;3.22;;;;;;;;;;4940493;28;20586;-57
2021/09/30 09:58:03;;;;;;;6.75;2.83;;;;;;;;;;4937222;29;20035;-58
2021/09/30 10:00:28;;;;;;;5.30;2.80;;;;;;;;;;4941143;28;20127;-58
2021/09/30 10:02:54;;;;;;;7.80;3.05;;;;;;;;;;4928631;29;20110;-58
2021/09/30 10:05:19;;;;;;;7.00;2.90;;;;;;;;;;4934884;28;20035;-57
2021/09/30 10:07:46;;;;;;;5.88;2.95;;;;;;;;;;4934585;29;20024;-57
2021/09/30 10:10:11;;;;;;;10.20;3.13;;;;;;;;;;4927945;29;20023;-57
2021/09/30 10:12:37;;;;;;;7.80;2.80;;;;;;;;;;4934311;29;20043;-57
2021/09/30 10:15:02;;;;;;;8.45;3.03;;;;;;;;;;4937610;28;20090;-56
2021/09/30 10:17:27;;;;;;;7.63;2.95;;;;;;;;;;4933909;29;20413;-57
2021/09/30 10:19:53;;;;;;;5.85;3.10;;;;;;;;;;4940903;29;20062;-57
2021/09/30 10:22:18;;;;;;;7.45;3.20;;;;;;;;;;4936822;29;20083;-58
2021/09/30 10:24:43;;;;;;;6.55;2.90;;;;;;;;;;4934823;29;20109;-59
2021/09/30 10:27:08;;;;;;;10.75;3.05;;;;;;;;;;4933639;28;20130;-58
2021/09/30 10:29:43;;;;;;;7.30;2.85;;;;;;;;;;4916980;29;20079;-58
2021/09/30 10:32:08;;;;;;;6.45;2.65;;;;;;;;;;4916500;29;20078;-58
2021/09/30 10:34:34;;;;;;;9.63;2.80;;;;;;;;;;4934197;29;20028;-58
2021/09/30 10:37:19;;;;;;;8.25;2.80;;;;;;;;;;4942525;28;20043;-58
2021/09/30 10:39:48;;;;;;;10.27;3.00;;;;;;;;;;4938664;29;20035;-58
2021/09/30 10:42:53;;;;;;;7.93;2.80;;;;;;;;;;4938909;29;20036;-58
2021/09/30 10:45:18;;;;;;;6.13;3.20;;;;;;;;;;4902794;28;20138;-58
2021/09/30 10:47:43;;;;;;;6.10;3.20;;;;;;;;;;4935962;29;20209;-58
2021/09/30 10:50:08;;;;;;;6.88;2.55;;;;;;;;;;4933141;28;20502;-58
2021/09/30 10:52:35;;;;;;;8.30;2.20;;;;;;;;;;4932099;29;20534;-58
2021/09/30 10:55:04;;;;;;;4.63;2.47;;;;;;;;;;4942999;28;20035;-57
2021/09/30 10:57:32;;;;;;;8.25;2.60;;;;;;;;;;4933312;29;20059;-58
2021/09/30 10:59:57;;;;;;;7.22;2.20;;;;;;;;;;4937340;29;20019;-59
2021/09/30 11:02:23;;;;;;;5.50;2.22;;;;;;;;;;4933933;28;20039;-58
2021/09/30 11:05:01;;;;;;;6.80;2.50;;;;;;;;;;4934855;29;20020;-58
2021/09/30 11:07:26;;;;;;;5.60;2.88;;;;;;;;;;4964459;28;20049;-58
2021/09/30 11:10:10;;;;;;;8.82;2.50;;;;;;;;;;4953084;28;20023;-58
2021/09/30 11:12:35;;;;;;;9.13;2.20;;;;;;;;;;4955859;28;20051;-58
2021/09/30 11:15:01;;;;;;;5.38;2.40;;;;;;;;;;4954243;28;20042;-58
2021/09/30 11:17:39;;;;;;;8.88;2.33;;;;;;;;;;4953654;28;20023;-58
2021/09/30 11:20:22;;;;;;;6.00;2.25;;;;;;;;;;4951632;28;20039;-58
2021/09/30 11:22:48;;;;;;;6.15;2.25;;;;;;;;;;4952336;28;20031;-58
2021/09/30 11:25:13;;;;;;;7.22;2.40;;;;;;;;;;4954409;28;20030;-58
2021/09/30 11:27:38;;;;;;;9.02;2.30;;;;;;;;;;4952744;28;20038;-58
2021/09/30 11:30:16;;;;;;;7.18;2.20;;;;;;;;;;4954081;28;20051;-58
2021/09/30 11:32:41;;;;;;;5.95;1.90;;;;;;;;;;4959852;28;20493;-58
2021/09/30 11:35:07;;;;;;;5.68;1.90;;;;;;;;;;4948143;28;20097;-58
2021/09/30 11:37:36;;;;;;;5.75;2.00;;;;;;;;;;4951894;28;20031;-58
2021/09/30 11:40:05;;;;;;;4.88;2.13;;;;;;;;;;4949997;28;20078;-58
2021/09/30 11:42:34;;;;;;;8.55;1.95;;;;;;;;;;4957379;28;20039;-58
2021/09/30 11:45:00;;;;;;;5.18;2.15;;;;;;;;;;4951474;28;20556;-59
2021/09/30 11:47:26;;;;;;;8.20;2.42;;;;;;;;;;4951516;28;20039;-58
2021/09/30 11:49:51;;;;;;;8.85;1.85;;;;;;;;;;4951634;28;20061;-58
2021/09/30 11:52:17;;;;;;;7.30;2.05;;;;;;;;;;4954094;28;20109;-59
2021/09/30 11:54:42;;;;;;;7.53;2.25;;;;;;;;;;4957169;28;20034;-58
2021/09/30 11:57:15;;;;;;;5.32;1.88;;;;;;;;;;4958468;28;20157;-59
2021/09/30 11:59:40;;;;;;;8.77;1.92;;;;;;;;;;4951467;28;20027;-59
2021/09/30 12:02:06;;;;;;;7.57;1.92;;;;;;;;;;4949734;28;20062;-59
2021/09/30 12:04:33;;;;;;;6.45;2.20;;;;;;;;;;4954991;28;20057;-58
2021/09/30 12:06:58;;;;;;;8.60;2.38;;;;;;;;;;4953111;28;20042;-59
2021/09/30 12:09:23;;;;;;;8.10;2.05;;;;;;;;;;4954081;28;20038;-58
2021/09/30 12:11:56;;;;;;;7.00;1.85;;;;;;;;;;5056605;27;20415;-59
2021/09/30 12:14:21;;;;;;;7.68;2.20;;;;;;;;;;5058274;28;20040;-59
2021/09/30 12:17:02;;;;;;;5.95;2.08;;;;;;;;;;5048243;28;20049;-59
2021/09/30 12:19:28;;;;;;;6.50;2.10;;;;;;;;;;5042726;28;20398;-59
2021/09/30 12:21:53;;;;;;;6.32;2.22;;;;;;;;;;5041420;28;20045;-59
2021/09/30 12:24:28;;;;;;;8.38;2.10;;;;;;;;;;5017579;28;20032;-58
2021/09/30 12:26:53;;;;;;;7.75;2.67;;;;;;;;;;5014108;28;20523;-58
2021/09/30 12:29:19;;;;;;;8.18;2.30;;;;;;;;;;5021527;28;20022;-58
2021/09/30 12:31:44;;;;;;;5.10;2.00;;;;;;;;;;5022061;28;20049;-58
2021/09/30 12:34:25;;;;;;;7.10;2.20;;;;;;;;;;5037574;28;20096;-60
2021/09/30 12:36:50;;;;;;;8.73;2.03;;;;;;;;;;5014683;28;20061;-58
2021/09/30 12:39:22;;;;;;;7.53;2.20;;;;;;;;;;5017725;28;20025;-58
2021/09/30 12:41:47;;;;;;;5.55;1.85;;;;;;;;;;5016257;28;20865;-58
2021/09/30 12:44:12;;;;;;;4.70;2.08;;;;;;;;;;5015943;28;20128;-58
2021/09/30 12:46:46;;;;;;;6.50;1.70;;;;;;;;;;5014969;28;20065;-58
2021/09/30 12:49:11;;;;;;;9.70;1.90;;;;;;;;;;5017607;28;20404;-58
2021/09/30 12:51:36;;;;;;;5.45;1.80;;;;;;;;;;5020411;28;20041;-58
2021/09/30 12:54:20;;;;;;;7.97;1.90;;;;;;;;;;5021900;28;20022;-58
2021/09/30 12:56:45;;;;;;;6.40;1.73;;;;;;;;;;5034053;28;20117;-58
2021/09/30 12:59:17;;;;;;;4.38;1.73;;;;;;;;;;5021742;28;20104;-58
2021/09/30 13:01:42;;;;;;;6.13;1.63;;;;;;;;;;5035216;28;20385;-57
2021/09/30 13:04:13;;;;;;;5.63;1.70;;;;;;;;;;5021686;28;20340;-58
2021/09/30 13:06:39;;;;;;;7.13;1.90;;;;;;;;;;5020736;28;20042;-58
2021/09/30 13:09:05;;;;;;;5.65;1.52;;;;;;;;;;5016734;28;20031;-57
2021/09/30 13:11:33;;;;;;;8.70;1.80;;;;;;;;;;5017339;28;20045;-58
2021/09/30 13:14:17;;;;;;;7.03;1.65;;;;;;;;;;5018476;28;20040;-58
2021/09/30 13:16:43;;;;;;;6.60;1.73;;;;;;;;;;5017332;28;20030;-58
2021/09/30 13:19:08;;;;;;;5.85;1.80;;;;;;;;;;5019543;28;20471;-58
2021/09/30 13:21:54;;;;;;;5.65;1.70;;;;;;;;;;5013939;28;20042;-58
2021/09/30 13:24:19;;;;;;;8.77;1.85;;;;;;;;;;5000386;28;20084;-58
2021/09/30 13:26:44;;;;;;;4.22;1.63;;;;;;;;;;5006924;28;20045;-57
2021/09/30 13:29:09;;;;;;;4.35;1.50;;;;;;;;;;5004426;28;20014;-57
2021/09/30 13:31:35;;;;;;;5.18;1.80;;;;;;;;;;5005354;28;20111;-58
2021/09/30 13:34:00;;;;;;;5.78;2.00;;;;;;;;;;5004477;28;20053;-58
2021/09/30 13:36:25;;;;;;;3.72;1.65;;;;;;;;;;5006392;28;20037;-57
2021/09/30 13:38:51;;;;;;;3.80;1.48;;;;;;;;;;5005246;28;20049;-58
2021/09/30 13:41:16;;;;;;;5.30;1.60;;;;;;;;;;5018312;28;20038;-58
2021/09/30 13:43:41;;;;;;;7.57;1.90;;;;;;;;;;5003703;28;20026;-57
2021/09/30 13:46:06;;;;;;;6.60;1.60;;;;;;;;;;5009580;28;20084;-58
2021/09/30 13:48:32;;;;;;;7.80;2.05;;;;;;;;;;5022252;28;20049;-60
2021/09/30 13:50:57;;;;;;;6.63;1.80;;;;;;;;;;5024504;28;20077;-59
2021/09/30 13:53:22;;;;;;;4.90;1.95;;;;;;;;;;5022104;28;20064;-57
2021/09/30 13:55:47;;;;;;;7.07;2.22;;;;;;;;;;5026979;28;20044;-57
2021/09/30 13:58:13;;;;;;;7.47;2.40;;;;;;;;;;5027217;28;20164;-57
2021/09/30 14:00:38;;;;;;;7.20;1.80;;;;;;;;;;5027468;28;20129;-59
2021/09/30 14:03:03;;;;;;;4.55;1.67;;;;;;;;;;5024747;28;20100;-57
2021/09/30 14:05:28;;;;;;;6.20;2.35;;;;;;;;;;5026506;28;20057;-59
2021/09/30 14:07:53;;;;;;;5.70;1.88;;;;;;;;;;5020429;28;20022;-59
2021/09/30 14:10:19;;;;;;;5.93;1.73;;;;;;;;;;5025561;28;20065;-59
2021/09/30 14:12:45;;;;;;;10.73;1.98;;;;;;;;;;5020510;28;20025;-59
2021/09/30 14:15:10;;;;;;;7.78;2.03;;;;;;;;;;5025962;28;20459;-59
2021/09/30 14:17:38;;;;;;;8.02;1.77;;;;;;;;;;5026482;28;20447;-59
2021/09/30 14:20:03;;;;;;;6.63;1.83;;;;;;;;;;5023341;28;20121;-58
2021/09/30 14:22:28;;;;;;;9.63;2.10;;;;;;;;;;5023612;28;20112;-58
2021/09/30 14:24:54;;;;;;;5.95;1.58;;;;;;;;;;5024918;28;20029;-59
2021/09/30 14:27:21;;;;;;;6.45;1.85;;;;;;;;;;5019804;28;20112;-57
2021/09/30 14:29:46;;;;;;;6.68;1.85;;;;;;;;;;5013505;28;20036;-57
2021/09/30 14:32:12;;;;;;;3.92;1.88;;;;;;;;;;5038364;28;20033;-57
2021/09/30 14:34:38;;;;;;;6.15;1.70;;;;;;;;;;5023565;28;20041;-57
2021/09/30 14:37:03;;;;;;;7.03;1.90;;;;;;;;;;5015816;28;20474;-57
2021/09/30 14:39:29;;;;;;;7.05;1.80;;;;;;;;;;5023878;28;20061;-57
2021/09/30 14:41:54;;;;;;;8.15;1.90;;;;;;;;;;5024087;28;20060;-57
2021/09/30 14:44:23;;;;;;;7.65;2.08;;;;;;;;;;5026699;28;20022;-57
2021/09/30 14:46:48;;;;;;;5.55;1.80;;;;;;;;;;5025016;28;20376;-58
2021/09/30 14:49:14;;;;;;;6.85;1.85;;;;;;;;;;5027079;28;20033;-58
2021/09/30 14:51:39;;;;;;;5.22;1.60;;;;;;;;;;5024050;28;20049;-59
2021/09/30 14:54:04;;;;;;;9.15;1.92;;;;;;;;;;5025011;28;20033;-58
2021/09/30 14:56:30;;;;;;;5.68;1.83;;;;;;;;;;5020815;28;20041;-58
2021/09/30 14:58:55;;;;;;;6.05;1.60;;;;;;;;;;5025848;28;20468;-58
2021/09/30 15:01:21;;;;;;;5.10;1.58;;;;;;;;;;5025680;28;20115;-56
2021/09/30 15:03:47;;;;;;;5.22;1.60;;;;;;;;;;5024869;28;20033;-59
2021/09/30 15:06:12;;;;;;;5.88;1.95;;;;;;;;;;5021498;28;20590;-58
2021/09/30 15:08:37;;;;;;;8.85;1.90;;;;;;;;;;5022479;28;20104;-58
2021/09/30 15:11:03;;;;;;;5.15;1.60;;;;;;;;;;5025184;28;20541;-57
2021/09/30 15:13:28;;;;;;;7.18;1.70;;;;;;;;;;5026747;28;20064;-57
2021/09/30 15:15:54;;;;;;;4.15;1.70;;;;;;;;;;5026484;28;20095;-57
2021/09/30 15:18:49;;;;;;;6.95;1.85;;;;;;;;;;5026061;28;20025;-57
2021/09/30 15:21:26;;;;;;;5.18;1.60;;;;;;;;;;5025203;28;20084;-57
2021/09/30 15:23:56;;;;;;;6.97;1.92;;;;;;;;;;5021346;28;20040;-57
2021/09/30 15:26:21;;;;;;;;;;;;;;;;;;5010211;28;20042;-57
2021/09/30 15:28:46;;;;;;;3.55;1.70;;;;;;;;;;5024134;28;19919;-57
2021/09/30 15:31:12;;;;;;;6.53;1.85;;;;;;;;;;5014378;28;20065;-57
2021/09/30 15:33:37;;;;;;;4.85;1.80;;;;;;;;;;5040303;28;20030;-57
2021/09/30 15:36:04;;;;;;;8.27;1.75;;;;;;;;;;5021597;28;20497;-62
2021/09/30 15:38:29;;;;;;;6.97;2.03;;;;;;;;;;5020317;28;20022;-56
2021/09/30 15:40:55;;;;;;;8.48;2.00;;;;;;;;;;5024250;28;20029;-59
2021/09/30 15:43:20;;;;;;;6.05;1.73;;;;;;;;;;5024374;28;20020;-57
2021/09/30 15:45:45;;;;;;;7.32;1.85;;;;;;;;;;5035944;28;20030;-57
2021/09/30 15:48:11;;;;;;;6.25;1.80;;;;;;;;;;5023840;28;20483;-59
2021/09/30 15:50:36;;;;;;;7.32;1.95;;;;;;;;;;5023691;28;20041;-59
2021/09/30 15:53:01;;;;;;;4.80;1.77;;;;;;;;;;5018018;28;20175;-59
2021/09/30 15:55:26;;;;;;;6.63;1.92;;;;;;;;;;5023446;28;20124;-58
2021/09/30 15:57:52;;;;;;;8.15;2.15;;;;;;;;;;5021119;28;20047;-59
2021/09/30 16:00:17;;;;;;;4.55;1.83;;;;;;;;;;5025667;28;20037;-58
2021/09/30 16:02:42;;;;;;;3.42;1.70;;;;;;;;;;5021503;28;20025;-58
2021/09/30 16:05:08;;;;;;;7.10;1.80;;;;;;;;;;5019163;28;20029;-58
2021/09/30 16:07:33;;;;;;;4.03;1.77;;;;;;;;;;5020875;28;20080;-58
2021/09/30 16:09:58;;;;;;;4.03;1.65;;;;;;;;;;5024024;28;20136;-58
2021/09/30 16:12:23;;;;;;;5.63;1.75;;;;;;;;;;5023725;28;20048;-58
2021/09/30 16:14:50;;;;;;;6.85;1.80;;;;;;;;;;5025164;28;20118;-58
2021/09/30 16:17:16;;;;;;;5.72;2.03;;;;;;;;;;5020555;28;20037;-58
2021/09/30 16:19:43;;;;;;;6.55;1.98;;;;;;;;;;5025388;28;20071;-58
2021/09/30 16:22:08;;;;;;;8.00;1.85;;;;;;;;;;5024124;28;20052;-57
2021/09/30 16:24:34;;;;;;;6.00;1.90;;;;;;;;;;5025152;28;20026;-58
2021/09/30 16:26:59;;;;;;;4.00;1.77;;;;;;;;;;5022429;28;20022;-58
2021/09/30 16:29:24;;;;;;;5.18;1.85;;;;;;;;;;5023824;28;20026;-58
2021/09/30 16:31:49;;;;;;;7.80;1.80;;;;;;;;;;5024546;28;20053;-58
2021/09/30 16:34:15;;;;;;;6.78;1.60;;;;;;;;;;5021997;28;20021;-59
2021/09/30 16:36:41;;;;;;;6.10;1.90;;;;;;;;;;5021515;28;20037;-58
2021/09/30 16:39:06;;;;;;;6.70;2.20;;;;;;;;;;5020748;28;20038;-58
2021/09/30 16:41:32;;;;;;;6.03;2.50;;;;;;;;;;5022424;28;20041;-58
2021/09/30 16:43:57;;;;;;;6.43;2.00;;;;;;;;;;5022307;28;20033;-58
2021/09/30 16:46:22;;;;;;;7.65;2.40;;;;;;;;;;5022213;28;20038;-58
2021/09/30 16:48:48;;;;;;;7.50;2.00;;;;;;;;;;5023566;28;20041;-58
2021/09/30 16:51:13;;;;;;;7.18;2.28;;;;;;;;;;5020151;28;20053;-58
2021/09/30 16:53:39;;;;;;;7.95;3.10;;;;;;;;;;5022853;28;20113;-58
2021/09/30 16:56:04;;;;;;;8.82;3.22;;;;;;;;;;5022261;28;20076;-57
2021/09/30 16:58:29;;;;;;;6.22;2.45;;;;;;;;;;5024652;28;20100;-58
2021/09/30 17:00:54;;;;;;;13.52;3.25;;;;;;;;;;5026921;28;20049;-58
2021/09/30 17:03:20;;;;;;;7.70;3.95;;;;;;;;;;5026077;28;20092;-58
2021/09/30 17:05:45;;;;;;;7.53;3.33;;;;;;;;;;5040812;28;20049;-57
2021/09/30 17:08:10;;;;;;;18.17;4.57;;;;;;;;;;5026254;28;20029;-57
2021/09/30 17:10:36;;;;;;;11.32;2.63;;;;;;;;;;5026073;28;20072;-58
2021/09/30 17:13:01;;;;;;;6.40;2.30;;;;;;;;;;5026946;28;20481;-58
2021/09/30 17:15:29;;;;;;;6.40;2.20;;;;;;;;;;5026190;28;20499;-58
2021/09/30 17:17:54;;;;;;;4.72;1.83;;;;;;;;;;5025818;28;20365;-58
2021/09/30 17:20:20;;;;;;;6.10;2.70;;;;;;;;;;5025955;28;26424;-58
2021/09/30 17:22:46;;;;;;;6.80;3.03;;;;;;;;;;5021126;28;20116;-58
2021/09/30 17:25:12;;;;;;;12.15;2.47;;;;;;;;;;5026425;28;20598;-58
2021/09/30 17:27:37;;;;;;;8.30;2.28;;;;;;;;;;5025650;28;20099;-57
2021/09/30 17:30:03;;;;;;;10.25;2.65;;;;;;;;;;5023887;28;20116;-57
2021/09/30 17:32:28;;;;;;;10.07;2.53;;;;;;;;;;5025479;28;20462;-58